createdAt,value
2017-11-27T00:00:08.569Z,1015.19
2017-11-27T00:01:08.543Z,1015.21
2017-11-27T00:02:08.519Z,1015.17
2017-11-27T00:03:08.497Z,1015.22
2017-11-27T00:04:08.463Z,1015.17
2017-11-27T00:05:08.440Z,1015.14
2017-11-27T00:06:08.413Z,1015.12
2017-11-27T00:07:08.387Z,1015.14
2017-11-27T00:08:08.360Z,1015.10
2017-11-27T00:09:08.334Z,1015.11
2017-11-27T00:10:08.309Z,1015.05
2017-11-27T00:11:08.285Z,1015.11
2017-11-27T00:12:08.253Z,1015.05
2017-11-27T00:13:08.232Z,1015.06
2017-11-27T00:14:08.203Z,1015.04
2017-11-27T00:15:08.177Z,1015.03
2017-11-27T00:16:08.151Z,1015.03
2017-11-27T00:17:08.125Z,1015.02
2017-11-27T00:18:08.098Z,1014.99
2017-11-27T00:19:08.081Z,1015.03
2017-11-27T00:20:08.046Z,1014.99
2017-11-27T00:21:08.020Z,1014.95
2017-11-27T00:22:07.993Z,1014.94
2017-11-27T00:23:07.967Z,1014.90
2017-11-27T00:24:07.939Z,1014.95
2017-11-27T00:25:07.913Z,1014.95
2017-11-27T00:26:07.888Z,1014.98
2017-11-27T00:27:07.861Z,1014.96
2017-11-27T00:28:07.839Z,1014.94
2017-11-27T00:29:07.811Z,1014.96
2017-11-27T00:30:07.798Z,1014.97
2017-11-27T00:31:07.757Z,1015.04
2017-11-27T00:32:07.727Z,1015.04
2017-11-27T00:33:07.707Z,1015.08
2017-11-27T00:34:07.679Z,1015.04
2017-11-27T00:35:07.654Z,1015.04
2017-11-27T00:36:07.624Z,1015.03
2017-11-27T00:37:07.607Z,1015.10
2017-11-27T00:38:07.574Z,1015.04
2017-11-27T00:39:07.550Z,1014.99
2017-11-27T00:40:07.528Z,1015.05
2017-11-27T00:41:07.495Z,1015.01
2017-11-27T00:42:07.469Z,1015.01
2017-11-27T00:43:07.442Z,1014.94
2017-11-27T00:44:07.415Z,1014.98
2017-11-27T00:45:07.391Z,1014.93
2017-11-27T00:46:07.363Z,1014.89
2017-11-27T00:47:07.337Z,1014.85
2017-11-27T00:48:07.311Z,1014.84
2017-11-27T00:49:07.285Z,1014.80
2017-11-27T00:50:07.259Z,1014.84
2017-11-27T00:51:07.233Z,1014.84
2017-11-27T00:52:07.214Z,1014.83
2017-11-27T00:53:07.180Z,1014.81
2017-11-27T00:54:07.154Z,1014.82
2017-11-27T00:55:07.127Z,1014.79
2017-11-27T00:56:07.103Z,1014.79
2017-11-27T00:57:07.074Z,1014.83
2017-11-27T00:58:07.049Z,1014.75
2017-11-27T00:59:07.023Z,1014.73
2017-11-27T01:00:06.997Z,1014.77
2017-11-27T01:01:06.971Z,1014.72
2017-11-27T01:02:06.945Z,1014.71
2017-11-27T01:03:06.920Z,1014.72
2017-11-27T01:04:06.892Z,1014.84
2017-11-27T01:05:06.865Z,1014.76
2017-11-27T01:06:06.839Z,1014.69
2017-11-27T01:07:06.813Z,1014.77
2017-11-27T01:08:06.786Z,1014.73
2017-11-27T01:09:06.759Z,1014.68
2017-11-27T01:10:06.732Z,1014.70
2017-11-27T01:11:06.708Z,1014.68
2017-11-27T01:12:06.682Z,1014.71
2017-11-27T01:13:06.654Z,1014.75
2017-11-27T01:14:06.629Z,1014.70
2017-11-27T01:15:06.604Z,1014.74
2017-11-27T01:16:06.576Z,1014.72
2017-11-27T01:17:06.552Z,1014.77
2017-11-27T01:18:06.525Z,1014.77
2017-11-27T01:19:06.498Z,1014.89
2017-11-27T01:20:06.472Z,1014.76
2017-11-27T01:21:06.446Z,1014.73
2017-11-27T01:22:06.430Z,1014.78
2017-11-27T01:23:06.393Z,1014.75
2017-11-27T01:24:06.368Z,1014.80
2017-11-27T01:25:06.341Z,1014.82
2017-11-27T01:26:06.324Z,1014.72
2017-11-27T01:27:06.290Z,1014.75
2017-11-27T01:28:06.263Z,1014.72
2017-11-27T01:29:06.237Z,1014.79
2017-11-27T01:30:06.211Z,1014.75
2017-11-27T01:31:06.184Z,1014.77
2017-11-27T01:32:06.160Z,1014.79
2017-11-27T01:33:06.133Z,1014.89
2017-11-27T01:34:06.106Z,1014.78
2017-11-27T01:35:06.083Z,1014.84
2017-11-27T01:36:06.054Z,1014.87
2017-11-27T01:37:06.030Z,1014.81
2017-11-27T01:38:06.001Z,1014.83
2017-11-27T01:39:05.977Z,1014.85
2017-11-27T01:40:05.951Z,1014.91
2017-11-27T01:41:05.924Z,1014.76
2017-11-27T01:42:05.901Z,1014.83
2017-11-27T01:43:05.874Z,1014.79
2017-11-27T01:44:05.846Z,1014.81
2017-11-27T01:45:05.822Z,1014.84
2017-11-27T01:46:05.795Z,1014.83
2017-11-27T01:47:05.770Z,1014.86
2017-11-27T01:48:05.744Z,1014.89
2017-11-27T01:49:05.717Z,1014.86
2017-11-27T01:50:05.693Z,1014.84
2017-11-27T01:51:05.666Z,1014.83
2017-11-27T01:52:05.639Z,1014.81
2017-11-27T01:53:05.613Z,1014.75
2017-11-27T01:54:05.584Z,1014.76
2017-11-27T01:55:05.562Z,1014.72
2017-11-27T01:56:05.538Z,1014.73
2017-11-27T01:57:05.511Z,1014.68
2017-11-27T01:58:05.484Z,1014.69
2017-11-27T01:59:05.462Z,1014.72
2017-11-27T02:00:05.433Z,1014.65
2017-11-27T02:01:05.406Z,1014.70
2017-11-27T02:02:05.379Z,1014.69
2017-11-27T02:03:05.357Z,1014.67
2017-11-27T02:04:05.326Z,1014.72
2017-11-27T02:05:05.300Z,1014.67
2017-11-27T02:06:05.276Z,1014.68
2017-11-27T02:07:05.248Z,1014.63
2017-11-27T02:08:05.223Z,1014.72
2017-11-27T02:09:05.198Z,1014.67
2017-11-27T02:10:05.171Z,1014.60
2017-11-27T02:11:05.156Z,1014.69
2017-11-27T02:12:05.120Z,1014.61
2017-11-27T02:13:05.093Z,1014.63
2017-11-27T02:14:05.068Z,1014.60
2017-11-27T02:15:05.040Z,1014.57
2017-11-27T02:16:05.014Z,1014.61
2017-11-27T02:17:04.989Z,1014.58
2017-11-27T02:18:04.963Z,1014.51
2017-11-27T02:19:04.937Z,1014.52
2017-11-27T02:20:04.908Z,1014.53
2017-11-27T02:21:04.881Z,1014.53
2017-11-27T02:22:04.856Z,1014.51
2017-11-27T02:23:04.830Z,1014.53
2017-11-27T02:24:04.805Z,1014.51
2017-11-27T02:25:04.778Z,1014.50
2017-11-27T02:26:04.754Z,1014.44
2017-11-27T02:27:04.728Z,1014.47
2017-11-27T02:28:04.700Z,1014.46
2017-11-27T02:29:04.673Z,1014.44
2017-11-27T02:30:04.650Z,1014.41
2017-11-27T02:31:04.628Z,1014.42
2017-11-27T02:32:04.596Z,1014.43
2017-11-27T02:33:04.571Z,1014.39
2017-11-27T02:34:04.542Z,1014.39
2017-11-27T02:35:04.519Z,1014.38
2017-11-27T02:36:04.490Z,1014.39
2017-11-27T02:37:04.465Z,1014.38
2017-11-27T02:38:04.439Z,1014.35
2017-11-27T02:39:04.413Z,1014.35
2017-11-27T02:40:04.386Z,1014.34
2017-11-27T02:41:04.360Z,1014.34
2017-11-27T02:42:04.335Z,1014.37
2017-11-27T02:43:04.308Z,1014.34
2017-11-27T02:44:04.291Z,1014.33
2017-11-27T02:45:04.263Z,1014.49
2017-11-27T02:46:04.230Z,1014.44
2017-11-27T02:47:04.203Z,1014.37
2017-11-27T02:48:04.184Z,1014.35
2017-11-27T02:49:04.164Z,1014.29
2017-11-27T02:50:04.126Z,1014.30
2017-11-27T02:51:04.102Z,1014.28
2017-11-27T02:52:04.073Z,1014.18
2017-11-27T02:53:04.050Z,1014.20
2017-11-27T02:54:04.023Z,1014.21
2017-11-27T02:55:03.996Z,1014.20
2017-11-27T02:56:03.969Z,1014.25
2017-11-27T02:57:03.942Z,1014.25
2017-11-27T02:58:03.917Z,1014.24
2017-11-27T02:59:03.889Z,1014.21
2017-11-27T03:00:03.864Z,1014.26
2017-11-27T03:01:03.837Z,1014.15
2017-11-27T03:02:03.812Z,1014.17
2017-11-27T03:03:03.788Z,1014.19
2017-11-27T03:04:03.759Z,1014.15
2017-11-27T03:05:03.733Z,1014.11
2017-11-27T03:06:03.707Z,1014.09
2017-11-27T03:07:03.681Z,1014.08
2017-11-27T03:08:03.655Z,1014.07
2017-11-27T03:09:03.629Z,1014.06
2017-11-27T03:10:03.604Z,1014.07
2017-11-27T03:11:03.577Z,1014.07
2017-11-27T03:12:03.552Z,1014.02
2017-11-27T03:13:03.525Z,1014.00
2017-11-27T03:14:03.500Z,1013.98
2017-11-27T03:15:03.473Z,1014.02
2017-11-27T03:16:03.447Z,1014.01
2017-11-27T03:17:03.421Z,1013.95
2017-11-27T03:18:03.397Z,1013.97
2017-11-27T03:19:03.369Z,1013.89
2017-11-27T03:20:03.342Z,1013.88
2017-11-27T03:21:03.313Z,1013.84
2017-11-27T03:22:03.291Z,1013.81
2017-11-27T03:23:03.268Z,1013.85
2017-11-27T03:24:03.237Z,1013.81
2017-11-27T03:25:03.216Z,1013.73
2017-11-27T03:26:03.186Z,1013.78
2017-11-27T03:27:03.164Z,1013.79
2017-11-27T03:28:03.134Z,1013.78
2017-11-27T03:29:03.110Z,1013.76
2017-11-27T03:30:03.083Z,1013.78
2017-11-27T03:31:03.058Z,1013.72
2017-11-27T03:32:03.030Z,1013.68
2017-11-27T03:33:03.002Z,1013.68
2017-11-27T03:34:02.976Z,1013.66
2017-11-27T03:35:02.953Z,1013.68
2017-11-27T03:36:02.924Z,1013.65
2017-11-27T03:37:02.896Z,1013.69
2017-11-27T03:38:02.875Z,1013.67
2017-11-27T03:39:02.845Z,1013.57
2017-11-27T03:40:02.820Z,1013.60
2017-11-27T03:41:02.794Z,1013.70
2017-11-27T03:42:02.770Z,1013.62
2017-11-27T03:43:02.745Z,1013.74
2017-11-27T03:44:02.716Z,1013.68
2017-11-27T03:45:02.698Z,1013.82
2017-11-27T03:46:02.666Z,1013.65
2017-11-27T03:47:02.640Z,1013.65
2017-11-27T03:48:02.612Z,1013.60
2017-11-27T03:49:02.587Z,1013.58
2017-11-27T03:50:02.563Z,1013.53
2017-11-27T03:51:02.533Z,1013.64
2017-11-27T03:52:02.508Z,1013.58
2017-11-27T03:53:02.481Z,1013.59
2017-11-27T03:54:02.460Z,1013.55
2017-11-27T03:55:02.431Z,1013.56
2017-11-27T03:56:02.405Z,1013.52
2017-11-27T03:57:02.379Z,1013.42
2017-11-27T03:58:02.354Z,1013.51
2017-11-27T03:59:02.328Z,1013.48
2017-11-27T04:00:02.301Z,1013.42
2017-11-27T04:01:02.275Z,1013.44
2017-11-27T04:02:02.256Z,1013.41
2017-11-27T04:03:02.226Z,1013.39
2017-11-27T04:04:02.197Z,1013.44
2017-11-27T04:05:02.173Z,1013.44
2017-11-27T04:06:02.147Z,1013.45
2017-11-27T04:07:02.121Z,1013.35
2017-11-27T04:08:02.097Z,1013.36
2017-11-27T04:09:02.072Z,1013.33
2017-11-27T04:10:02.047Z,1013.33
2017-11-27T04:11:02.019Z,1013.33
2017-11-27T04:12:02.033Z,1013.39
2017-11-27T04:13:01.967Z,1013.29
2017-11-27T04:14:01.942Z,1013.24
2017-11-27T04:15:01.917Z,1013.23
2017-11-27T04:16:01.888Z,1013.19
2017-11-27T04:17:01.870Z,1013.21
2017-11-27T04:18:01.836Z,1013.21
2017-11-27T04:19:01.814Z,1013.20
2017-11-27T04:20:01.791Z,1013.21
2017-11-27T04:21:01.770Z,1013.14
2017-11-27T04:22:01.736Z,1013.10
2017-11-27T04:23:01.716Z,1013.12
2017-11-27T04:24:01.686Z,1013.13
2017-11-27T04:25:01.657Z,1013.21
2017-11-27T04:26:01.636Z,1013.19
2017-11-27T04:27:01.619Z,1013.07
2017-11-27T04:28:01.593Z,1013.08
2017-11-27T04:29:01.554Z,1012.98
2017-11-27T04:30:01.540Z,1013.10
2017-11-27T04:31:01.511Z,1012.99
2017-11-27T04:32:01.478Z,1012.96
2017-11-27T04:33:01.456Z,1013.00
2017-11-27T04:34:01.431Z,1012.93
2017-11-27T04:35:01.406Z,1012.98
2017-11-27T04:36:01.378Z,1013.04
2017-11-27T04:37:01.353Z,1012.90
2017-11-27T04:38:01.329Z,1012.90
2017-11-27T04:39:01.299Z,1012.82
2017-11-27T04:40:01.281Z,1012.91
2017-11-27T04:41:01.246Z,1012.81
2017-11-27T04:42:01.222Z,1012.86
2017-11-27T04:43:01.195Z,1012.95
2017-11-27T04:44:01.170Z,1012.86
2017-11-27T04:45:01.143Z,1012.83
2017-11-27T04:46:01.117Z,1012.88
2017-11-27T04:47:01.108Z,1012.83
2017-11-27T04:48:01.067Z,1012.96
2017-11-27T04:49:01.041Z,1012.91
2017-11-27T04:50:01.015Z,1012.88
2017-11-27T04:51:00.989Z,1012.77
2017-11-27T04:52:00.963Z,1012.91
2017-11-27T04:53:00.937Z,1012.87
2017-11-27T04:54:00.911Z,1012.84
2017-11-27T04:55:00.886Z,1012.80
2017-11-27T04:56:00.860Z,1012.74
2017-11-27T04:57:00.839Z,1012.75
2017-11-27T04:58:00.808Z,1012.77
2017-11-27T04:59:00.787Z,1012.79
2017-11-27T05:00:00.755Z,1012.75
2017-11-27T05:01:00.730Z,1012.78
2017-11-27T05:02:00.707Z,1012.78
2017-11-27T05:03:00.679Z,1012.75
2017-11-27T05:04:00.653Z,1012.74
2017-11-27T05:05:00.632Z,1012.69
2017-11-27T05:06:00.603Z,1012.66
2017-11-27T05:07:00.578Z,1012.65
2017-11-27T05:08:00.553Z,1012.66
2017-11-27T05:09:00.526Z,1012.59
2017-11-27T05:10:00.500Z,1012.63
2017-11-27T05:11:00.476Z,1012.63
2017-11-27T05:12:00.449Z,1012.68
2017-11-27T05:13:00.422Z,1012.59
2017-11-27T05:14:00.398Z,1012.61
2017-11-27T05:15:00.371Z,1012.52
2017-11-27T05:16:00.346Z,1012.49
2017-11-27T05:17:00.319Z,1012.56
2017-11-27T05:18:00.294Z,1012.52
2017-11-27T05:19:00.270Z,1012.51
2017-11-27T05:20:00.242Z,1012.46
2017-11-27T05:21:00.252Z,1012.42
2017-11-27T05:22:00.191Z,1012.46
2017-11-27T05:23:00.165Z,1012.41
2017-11-27T05:24:00.138Z,1012.38
2017-11-27T05:25:00.113Z,1012.35
2017-11-27T05:26:00.088Z,1012.35
2017-11-27T05:27:00.062Z,1012.33
2017-11-27T05:28:00.036Z,1012.37
2017-11-27T05:29:00.009Z,1012.43
2017-11-27T05:29:59.994Z,1012.33
2017-11-27T05:30:59.959Z,1012.34
2017-11-27T05:31:59.931Z,1012.34
2017-11-27T05:32:59.904Z,1012.35
2017-11-27T05:33:59.888Z,1012.35
2017-11-27T05:34:59.855Z,1012.23
2017-11-27T05:35:59.829Z,1012.19
2017-11-27T05:36:59.804Z,1012.27
2017-11-27T05:37:59.777Z,1012.24
2017-11-27T05:38:59.752Z,1012.21
2017-11-27T05:39:59.725Z,1012.17
2017-11-27T05:40:59.705Z,1012.17
2017-11-27T05:41:59.673Z,1012.12
2017-11-27T05:42:59.647Z,1012.13
2017-11-27T05:43:59.621Z,1012.14
2017-11-27T05:44:59.596Z,1012.14
2017-11-27T05:45:59.572Z,1012.05
2017-11-27T05:46:59.546Z,1012.11
2017-11-27T05:47:59.520Z,1012.09
2017-11-27T05:48:59.494Z,1012.15
2017-11-27T05:49:59.468Z,1012.21
2017-11-27T05:50:59.440Z,1012.07
2017-11-27T05:51:59.415Z,1012.15
2017-11-27T05:52:59.389Z,1012.13
2017-11-27T05:53:59.363Z,1012.06
2017-11-27T05:54:59.337Z,1012.04
2017-11-27T05:55:59.312Z,1012.01
2017-11-27T05:56:59.284Z,1012.05
2017-11-27T05:57:59.276Z,1012.04
2017-11-27T05:58:59.235Z,1011.91
2017-11-27T05:59:59.208Z,1012.05
2017-11-27T06:00:59.184Z,1011.89
2017-11-27T06:01:59.155Z,1011.89
2017-11-27T06:02:59.131Z,1011.97
2017-11-27T06:03:59.103Z,1011.81
2017-11-27T06:04:59.077Z,1011.83
2017-11-27T06:05:59.051Z,1011.83
2017-11-27T06:06:59.031Z,1011.75
2017-11-27T06:07:59.003Z,1011.77
2017-11-27T06:08:58.977Z,1011.73
2017-11-27T06:09:58.948Z,1011.77
2017-11-27T06:10:58.923Z,1011.75
2017-11-27T06:11:58.896Z,1011.67
2017-11-27T06:12:58.869Z,1011.73
2017-11-27T06:13:58.844Z,1011.62
2017-11-27T06:14:58.819Z,1011.69
2017-11-27T06:15:58.798Z,1011.64
2017-11-27T06:16:58.767Z,1011.60
2017-11-27T06:17:58.740Z,1011.62
2017-11-27T06:18:58.715Z,1011.49
2017-11-27T06:19:58.692Z,1011.49
2017-11-27T06:20:58.661Z,1011.54
2017-11-27T06:21:58.640Z,1011.40
2017-11-27T06:22:58.611Z,1011.44
2017-11-27T06:23:58.584Z,1011.47
2017-11-27T06:24:58.558Z,1011.37
2017-11-27T06:25:58.532Z,1011.33
2017-11-27T06:26:58.507Z,1011.40
2017-11-27T06:27:58.479Z,1011.28
2017-11-27T06:28:58.456Z,1011.24
2017-11-27T06:29:58.428Z,1011.28
2017-11-27T06:30:58.403Z,1011.26
2017-11-27T06:31:58.377Z,1011.23
2017-11-27T06:32:58.350Z,1011.24
2017-11-27T06:33:58.323Z,1011.23
2017-11-27T06:34:58.297Z,1011.18
2017-11-27T06:35:58.271Z,1011.29
2017-11-27T06:36:58.247Z,1011.17
2017-11-27T06:37:58.222Z,1011.15
2017-11-27T06:38:58.201Z,1011.09
2017-11-27T06:39:58.168Z,1011.17
2017-11-27T06:40:58.143Z,1011.06
2017-11-27T06:41:58.116Z,1011.09
2017-11-27T06:42:58.095Z,1011.08
2017-11-27T06:43:58.075Z,1011.01
2017-11-27T06:44:58.047Z,1011.08
2017-11-27T06:45:58.034Z,1011.08
2017-11-27T06:46:57.988Z,1010.96
2017-11-27T06:47:57.962Z,1011.00
2017-11-27T06:48:57.943Z,1010.96
2017-11-27T06:49:57.909Z,1011.04
2017-11-27T06:50:57.886Z,1010.97
2017-11-27T06:51:57.861Z,1010.91
2017-11-27T06:52:57.834Z,1010.93
2017-11-27T06:53:57.806Z,1010.86
2017-11-27T06:54:57.781Z,1010.87
2017-11-27T06:55:57.756Z,1010.80
2017-11-27T06:56:57.729Z,1010.76
2017-11-27T06:57:57.703Z,1010.76
2017-11-27T06:58:57.682Z,1010.77
2017-11-27T06:59:57.651Z,1010.72
2017-11-27T07:00:57.624Z,1010.65
2017-11-27T07:01:57.600Z,1010.72
2017-11-27T07:02:57.575Z,1010.79
2017-11-27T07:03:57.547Z,1010.63
2017-11-27T07:04:57.524Z,1010.63
2017-11-27T07:05:57.497Z,1010.52
2017-11-27T07:06:57.471Z,1010.58
2017-11-27T07:07:57.444Z,1010.55
2017-11-27T07:08:57.417Z,1010.56
2017-11-27T07:09:57.394Z,1010.58
2017-11-27T07:10:57.369Z,1010.58
2017-11-27T07:11:57.341Z,1010.52
2017-11-27T07:12:57.316Z,1010.52
2017-11-27T07:13:57.291Z,1010.51
2017-11-27T07:14:57.264Z,1010.42
2017-11-27T07:15:57.238Z,1010.53
2017-11-27T07:16:57.212Z,1010.48
2017-11-27T07:17:57.186Z,1010.43
2017-11-27T07:18:57.161Z,1010.38
2017-11-27T07:19:57.154Z,1010.39
2017-11-27T07:20:57.110Z,1010.34
2017-11-27T07:21:57.095Z,1010.30
2017-11-27T07:22:57.068Z,1010.40
2017-11-27T07:23:57.034Z,1010.39
2017-11-27T07:24:57.013Z,1010.31
2017-11-27T07:25:56.982Z,1010.28
2017-11-27T07:26:56.955Z,1010.20
2017-11-27T07:27:56.929Z,1010.22
2017-11-27T07:28:56.902Z,1010.21
2017-11-27T07:29:56.877Z,1010.20
2017-11-27T07:30:56.852Z,1010.22
2017-11-27T07:31:56.827Z,1010.24
2017-11-27T07:32:56.802Z,1010.23
2017-11-27T07:33:56.774Z,1010.25
2017-11-27T07:34:56.755Z,1010.26
2017-11-27T07:35:56.722Z,1010.25
2017-11-27T07:36:56.696Z,1010.27
2017-11-27T07:37:56.670Z,1010.39
2017-11-27T07:38:56.645Z,1010.16
2017-11-27T07:39:56.618Z,1010.24
2017-11-27T07:40:56.597Z,1010.22
2017-11-27T07:41:56.567Z,1010.17
2017-11-27T07:42:56.541Z,1010.17
2017-11-27T07:43:56.518Z,1010.05
2017-11-27T07:44:56.488Z,1010.09
2017-11-27T07:45:56.464Z,1010.14
2017-11-27T07:46:56.437Z,1010.14
2017-11-27T07:47:56.410Z,1010.09
2017-11-27T07:48:56.384Z,1010.12
2017-11-27T07:49:56.359Z,1009.98
2017-11-27T07:50:56.333Z,1009.98
2017-11-27T07:51:56.308Z,1009.92
2017-11-27T07:52:56.280Z,1009.91
2017-11-27T07:53:56.255Z,1009.95
2017-11-27T07:54:56.239Z,1009.84
2017-11-27T07:55:56.203Z,1009.83
2017-11-27T07:56:56.186Z,1009.88
2017-11-27T07:57:56.152Z,1009.83
2017-11-27T07:58:56.127Z,1009.93
2017-11-27T07:59:56.101Z,1009.82
2017-11-27T08:00:56.081Z,1009.87
2017-11-27T08:01:56.048Z,1009.80
2017-11-27T08:02:56.022Z,1009.81
2017-11-27T08:03:55.996Z,1009.74
2017-11-27T08:04:55.974Z,1009.75
2017-11-27T08:05:55.945Z,1009.91
2017-11-27T08:06:55.918Z,1009.77
2017-11-27T08:07:55.892Z,1009.66
2017-11-27T08:08:55.867Z,1009.66
2017-11-27T08:09:55.841Z,1009.65
2017-11-27T08:10:55.830Z,1009.52
2017-11-27T08:11:55.788Z,1009.53
2017-11-27T08:12:55.763Z,1009.49
2017-11-27T08:13:55.737Z,1009.48
2017-11-27T08:14:55.711Z,1009.40
2017-11-27T08:15:55.683Z,1009.36
2017-11-27T08:16:55.659Z,1009.35
2017-11-27T08:17:55.633Z,1009.29
2017-11-27T08:18:55.607Z,1009.37
2017-11-27T08:19:55.579Z,1009.34
2017-11-27T08:20:55.555Z,1009.33
2017-11-27T08:21:55.533Z,1009.30
2017-11-27T08:22:55.504Z,1009.29
2017-11-27T08:23:55.480Z,1009.31
2017-11-27T08:24:55.454Z,1009.24
2017-11-27T08:25:55.425Z,1009.20
2017-11-27T08:26:55.399Z,1009.29
2017-11-27T08:27:55.374Z,1009.12
2017-11-27T08:28:55.454Z,1009.30
2017-11-27T08:29:55.322Z,1009.16
2017-11-27T08:30:55.318Z,1009.19
2017-11-27T08:31:55.269Z,1009.16
2017-11-27T08:32:55.244Z,1009.14
2017-11-27T08:33:55.221Z,1009.11
2017-11-27T08:34:55.192Z,1009.14
2017-11-27T08:35:55.166Z,1009.14
2017-11-27T08:36:55.142Z,1009.07
2017-11-27T08:37:55.114Z,1009.06
2017-11-27T08:38:55.089Z,1009.09
2017-11-27T08:39:55.062Z,1009.12
2017-11-27T08:40:55.038Z,1009.10
2017-11-27T08:41:55.008Z,1009.11
2017-11-27T08:42:54.985Z,1009.00
2017-11-27T08:43:54.960Z,1009.07
2017-11-27T08:44:54.936Z,1008.98
2017-11-27T08:45:54.908Z,1008.94
2017-11-27T08:46:54.883Z,1008.95
2017-11-27T08:47:54.857Z,1008.85
2017-11-27T08:48:54.830Z,1008.92
2017-11-27T08:49:54.803Z,1008.84
2017-11-27T08:50:54.777Z,1008.95
2017-11-27T08:51:54.752Z,1008.98
2017-11-27T08:52:54.731Z,1008.82
2017-11-27T08:53:54.700Z,1008.85
2017-11-27T08:54:54.675Z,1008.68
2017-11-27T08:55:54.655Z,1008.66
2017-11-27T08:56:54.623Z,1008.70
2017-11-27T08:57:54.597Z,1008.73
2017-11-27T08:58:54.576Z,1008.88
2017-11-27T08:59:54.543Z,1008.60
2017-11-27T09:00:54.520Z,1008.59
2017-11-27T09:01:54.492Z,1008.60
2017-11-27T09:02:54.466Z,1008.53
2017-11-27T09:03:54.439Z,1008.51
2017-11-27T09:04:54.415Z,1008.42
2017-11-27T09:05:54.389Z,1008.48
2017-11-27T09:06:54.362Z,1008.48
2017-11-27T09:07:54.331Z,1008.39
2017-11-27T09:08:54.312Z,1008.31
2017-11-27T09:09:54.285Z,1008.41
2017-11-27T09:10:54.259Z,1008.39
2017-11-27T09:11:54.227Z,1008.34
2017-11-27T09:12:54.241Z,1008.27
2017-11-27T09:13:54.180Z,1008.31
2017-11-27T09:14:54.156Z,1008.26
2017-11-27T09:15:54.129Z,1008.31
2017-11-27T09:16:54.103Z,1008.19
2017-11-27T09:17:54.071Z,1008.21
2017-11-27T09:18:54.054Z,1008.23
2017-11-27T09:19:54.026Z,1008.19
2017-11-27T09:20:54.000Z,1008.20
2017-11-27T09:21:53.973Z,1008.30
2017-11-27T09:22:53.956Z,1008.30
2017-11-27T09:23:53.932Z,1008.10
2017-11-27T09:24:53.897Z,1008.10
2017-11-27T09:25:53.875Z,1008.10
2017-11-27T09:26:53.846Z,1008.02
2017-11-27T09:27:53.819Z,1007.99
2017-11-27T09:28:53.792Z,1007.92
2017-11-27T09:29:53.772Z,1008.00
2017-11-27T09:30:53.744Z,1007.83
2017-11-27T09:31:53.715Z,1007.84
2017-11-27T09:32:53.702Z,1007.89
2017-11-27T09:33:53.666Z,1007.88
2017-11-27T09:34:53.641Z,1007.81
2017-11-27T09:35:53.617Z,1007.77
2017-11-27T09:36:53.585Z,1007.81
2017-11-27T09:37:53.562Z,1007.78
2017-11-27T09:38:53.537Z,1007.75
2017-11-27T09:39:53.510Z,1007.84
2017-11-27T09:40:53.484Z,1007.75
2017-11-27T09:41:53.454Z,1007.70
2017-11-27T09:42:53.443Z,1007.68
2017-11-27T09:43:53.407Z,1007.70
2017-11-27T09:44:53.381Z,1007.76
2017-11-27T09:45:53.356Z,1007.61
2017-11-27T09:46:53.332Z,1007.68
2017-11-27T09:47:53.305Z,1007.66
2017-11-27T09:48:53.282Z,1007.67
2017-11-27T09:49:53.252Z,1007.64
2017-11-27T09:50:53.235Z,1007.56
2017-11-27T09:51:53.201Z,1007.58
2017-11-27T09:52:53.175Z,1007.60
2017-11-27T09:53:53.150Z,1007.56
2017-11-27T09:54:53.125Z,1007.52
2017-11-27T09:55:53.101Z,1007.47
2017-11-27T09:56:53.072Z,1007.41
2017-11-27T09:57:53.046Z,1007.46
2017-11-27T09:58:53.022Z,1007.51
2017-11-27T09:59:52.998Z,1007.46
2017-11-27T10:00:52.968Z,1007.39
2017-11-27T10:01:52.990Z,1007.29
2017-11-27T10:02:52.919Z,1007.30
2017-11-27T10:03:52.892Z,1007.34
2017-11-27T10:04:52.865Z,1007.34
2017-11-27T10:05:52.840Z,1007.25
2017-11-27T10:06:52.816Z,1007.20
2017-11-27T10:07:52.789Z,1007.23
2017-11-27T10:08:52.769Z,1007.34
2017-11-27T10:09:52.737Z,1007.24
2017-11-27T10:10:52.712Z,1007.19
2017-11-27T10:11:52.690Z,1007.17
2017-11-27T10:12:52.659Z,1007.18
2017-11-27T10:13:52.634Z,1007.10
2017-11-27T10:14:52.607Z,1007.05
2017-11-27T10:15:52.582Z,1007.08
2017-11-27T10:16:52.556Z,1006.95
2017-11-27T10:17:52.531Z,1006.91
2017-11-27T10:18:52.505Z,1006.92
2017-11-27T10:19:52.482Z,1006.93
2017-11-27T10:20:52.454Z,1006.90
2017-11-27T10:21:52.431Z,1006.90
2017-11-27T10:22:52.404Z,1006.78
2017-11-27T10:23:52.378Z,1006.89
2017-11-27T10:24:52.352Z,1006.89
2017-11-27T10:25:52.322Z,1006.80
2017-11-27T10:26:52.300Z,1006.83
2017-11-27T10:27:52.361Z,1006.73
2017-11-27T10:28:52.249Z,1006.80
2017-11-27T10:29:52.224Z,1006.72
2017-11-27T10:30:52.199Z,1006.74
2017-11-27T10:31:52.172Z,1006.69
2017-11-27T10:32:52.147Z,1006.57
2017-11-27T10:33:52.121Z,1006.48
2017-11-27T10:34:52.096Z,1006.46
2017-11-27T10:35:52.069Z,1006.56
2017-11-27T10:36:52.045Z,1006.38
2017-11-27T10:37:52.033Z,1006.37
2017-11-27T10:38:51.994Z,1006.24
2017-11-27T10:39:51.968Z,1006.26
2017-11-27T10:40:51.941Z,1006.27
2017-11-27T10:41:51.918Z,1006.22
2017-11-27T10:42:51.894Z,1006.10
2017-11-27T10:43:51.864Z,1006.07
2017-11-27T10:44:51.840Z,1005.99
2017-11-27T10:45:51.816Z,1005.96
2017-11-27T10:46:51.789Z,1006.00
2017-11-27T10:47:51.756Z,1005.98
2017-11-27T10:48:51.744Z,1005.86
2017-11-27T10:49:51.714Z,1005.93
2017-11-27T10:50:51.687Z,1005.70
2017-11-27T10:51:51.662Z,1005.80
2017-11-27T10:52:51.644Z,1005.77
2017-11-27T10:53:51.610Z,1005.67
2017-11-27T10:54:51.584Z,1005.66
2017-11-27T10:55:51.560Z,1005.65
2017-11-27T10:56:51.531Z,1005.66
2017-11-27T10:57:51.509Z,1005.64
2017-11-27T10:58:51.482Z,1005.54
2017-11-27T10:59:51.457Z,1005.65
2017-11-27T11:00:51.441Z,1005.49
2017-11-27T11:01:51.408Z,1005.55
2017-11-27T11:02:51.386Z,1005.45
2017-11-27T11:03:51.356Z,1005.43
2017-11-27T11:04:51.330Z,1005.35
2017-11-27T11:05:51.305Z,1005.27
2017-11-27T11:06:51.287Z,1005.42
2017-11-27T11:07:51.253Z,1005.34
2017-11-27T11:08:51.229Z,1005.30
2017-11-27T11:09:51.200Z,1005.30
2017-11-27T11:10:51.178Z,1005.23
2017-11-27T11:11:51.154Z,1005.29
2017-11-27T11:12:51.127Z,1005.29
2017-11-27T11:13:51.102Z,1005.27
2017-11-27T11:14:51.077Z,1005.37
2017-11-27T11:15:51.052Z,1005.24
2017-11-27T11:16:51.030Z,1005.25
2017-11-27T11:17:51.001Z,1005.20
2017-11-27T11:18:50.974Z,1005.20
2017-11-27T11:19:50.949Z,1005.23
2017-11-27T11:20:50.923Z,1005.14
2017-11-27T11:21:50.899Z,1005.04
2017-11-27T11:22:50.874Z,1005.18
2017-11-27T11:23:50.847Z,1005.03
2017-11-27T11:24:50.824Z,1005.05
2017-11-27T11:25:50.797Z,1005.02
2017-11-27T11:26:50.771Z,1005.05
2017-11-27T11:27:50.746Z,1005.05
2017-11-27T11:28:50.723Z,1005.00
2017-11-27T11:29:50.696Z,1005.06
2017-11-27T11:30:50.673Z,1005.01
2017-11-27T11:31:50.687Z,1004.98
2017-11-27T11:32:50.619Z,1004.85
2017-11-27T11:33:50.597Z,1004.89
2017-11-27T11:34:50.571Z,1004.94
2017-11-27T11:35:50.545Z,1004.78
2017-11-27T11:36:50.519Z,1004.85
2017-11-27T11:37:50.494Z,1004.87
2017-11-27T11:38:50.469Z,1004.88
2017-11-27T11:39:50.442Z,1004.75
2017-11-27T11:40:50.419Z,1004.78
2017-11-27T11:41:50.392Z,1004.71
2017-11-27T11:42:50.369Z,1004.80
2017-11-27T11:43:50.342Z,1004.75
2017-11-27T11:44:50.318Z,1004.59
2017-11-27T11:45:50.298Z,1004.62
2017-11-27T11:46:50.268Z,1004.67
2017-11-27T11:47:50.241Z,1004.71
2017-11-27T11:48:50.230Z,1004.69
2017-11-27T11:49:50.292Z,1004.67
2017-11-27T11:50:50.167Z,1004.61
2017-11-27T11:51:50.141Z,1004.61
2017-11-27T11:52:50.117Z,1004.60
2017-11-27T11:53:50.096Z,1004.56
2017-11-27T11:54:50.065Z,1004.52
2017-11-27T11:55:50.039Z,1004.85
2017-11-27T11:56:50.020Z,1004.66
2017-11-27T11:57:49.990Z,1004.52
2017-11-27T11:58:49.965Z,1004.54
2017-11-27T11:59:49.940Z,1004.50
2017-11-27T12:00:49.914Z,1004.43
2017-11-27T12:01:49.890Z,1004.47
2017-11-27T12:02:49.864Z,1004.36
2017-11-27T12:03:49.838Z,1004.32
2017-11-27T12:04:49.825Z,1004.35